Time,TemperatureF,DewpointF,PressureIn,WindDirection,WindDirectionDegrees,WindSpeedMPH,WindSpeedGustMPH,Humidity,HourlyPrecipIn,Conditions,Clouds,dailyrainin,SoftwareType,DateUTC
2016-02-10 00:07:00,17.6,16.4,29.62,NW,315,9.4,-999.0,95,-99.99,,,0.00,Acu-Link.com,2016-02-10 05:07:00,
2016-02-10 00:22:00,17.1,15.2,29.64,NE,45,7.3,-999.0,92,-99.99,,,0.00,Acu-Link.com,2016-02-10 05:22:00,
2016-02-10 00:37:00,16.7,14.5,29.64,NNW,337,10.4,-999.0,91,-99.99,,,0.00,Acu-Link.com,2016-02-10 05:37:00,
2016-02-10 00:52:00,16.5,14.3,29.65,ENE,67,4.7,-999.0,91,-99.99,,,0.00,Acu-Link.com,2016-02-10 05:52:00,
2016-02-10 01:07:00,16.2,14.5,29.65,NNW,337,6.8,-999.0,93,-99.99,,,0.00,Acu-Link.com,2016-02-10 06:07:00,
2016-02-10 01:22:00,15.6,13.2,29.66,ENE,67,5.8,-999.0,90,-99.99,,,0.00,Acu-Link.com,2016-02-10 06:22:00,
2016-02-10 01:38:00,15.1,12.2,29.65,NNW,337,8.9,-999.0,88,-99.99,,,0.00,Acu-Link.com,2016-02-10 06:38:00,
2016-02-10 01:53:00,14.9,12.3,29.66,ENE,67,7.8,-999.0,89,-99.99,,,0.00,Acu-Link.com,2016-02-10 06:53:00,
2016-02-10 02:08:00,14.4,11.8,29.66,NNE,22,6.8,-999.0,89,-99.99,,,0.00,Acu-Link.com,2016-02-10 07:08:00,
2016-02-10 02:23:00,14.0,11.6,29.66,ESE,112,5.3,-999.0,90,-99.99,,,0.00,Acu-Link.com,2016-02-10 07:23:00,
2016-02-10 02:39:00,13.5,11.1,29.67,ESE,112,7.3,-999.0,90,-99.99,,,0.00,Acu-Link.com,2016-02-10 07:39:00,
2016-02-10 02:55:00,12.6,11.4,29.67,SW,225,11.4,-999.0,95,-99.99,,,0.00,Acu-Link.com,2016-02-10 07:55:00,
2016-02-10 03:10:00,12.4,11.7,29.66,SSW,202,12.5,-999.0,97,-99.99,,,0.00,Acu-Link.com,2016-02-10 08:10:00,
2016-02-10 03:25:00,12.0,11.3,29.66,WSW,247,9.4,-999.0,97,-99.99,,,0.00,Acu-Link.com,2016-02-10 08:25:00,
2016-02-10 03:40:00,11.7,11.0,29.67,WSW,247,9.9,-999.0,97,-99.99,,,0.00,Acu-Link.com,2016-02-10 08:40:00,
2016-02-10 03:55:00,11.7,11.0,29.66,SW,225,10.4,-999.0,97,-99.99,,,0.00,Acu-Link.com,2016-02-10 08:55:00,
2016-02-10 04:10:00,11.8,11.1,29.66,SW,225,11.9,-999.0,97,-99.99,,,0.00,Acu-Link.com,2016-02-10 09:10:00,
2016-02-10 04:26:00,12.0,11.3,29.67,WSW,247,11.4,-999.0,97,-99.99,,,0.00,Acu-Link.com,2016-02-10 09:26:00,
2016-02-10 04:41:00,12.4,11.5,29.67,WSW,247,12.5,-999.0,96,-99.99,,,0.00,Acu-Link.com,2016-02-10 09:41:00,
2016-02-10 04:56:00,12.4,11.7,29.67,WSW,247,10.9,-999.0,97,-99.99,,,0.00,Acu-Link.com,2016-02-10 09:56:00,